Cricket, North Carolina
Current Conditions -  °F | °C
As of 5:35 PM on Monday 26 Jan 2015 (Local Time) from KUKF Reporting Station
Broken Clouds Broken Clouds  
Wind Chill: 39°   Ceiling: 5500
Heat Index: 39°   Visibility: 10mi
Dew Point: 28°   Wind: 3mph
Humidity: 65%   Direction: 220°SW
Pressure: 29.73"   Gusts: NA
Location:  36.1997°N, 81.0764°W
Report Text: KUKF 262235Z AUTO 22003KT 10SM SCT039 BKN055 BKN090 04/M02 A2973 RMK AO2
Loading
Personal Weather Stations






























Interactive Weather Map New forecast layout! Learn more

10-Day Weather Forecast

Advertisements
Track Severe Weather on mobile